Time;durP1;ratioP1;P1;durP2;ratioP2;P2;SDS_P1;SDS_P2;PMS_P1;PMS_P2;Temp;Humidity;BMP_temperature;BMP_pressure;BME280_temperature;BME280_humidity;BME280_pressure;Samples;Min_cycle;Max_cycle;Signal;HPM_P1;HPM_P2
2023/12/01 00:01:32;;;;;;;36.83;25.23;;;0.80;99.90;;;;;;5062896;28;20554;-83
2023/12/01 00:03:57;;;;;;;37.93;24.80;;;0.80;99.90;;;;;;5061018;28;20219;-82
2023/12/01 00:06:23;;;;;;;34.53;23.67;;;0.80;99.90;;;;;;5061317;28;20027;-83
2023/12/01 00:08:48;;;;;;;34.30;23.90;;;0.80;99.90;;;;;;5061198;28;20044;-83
2023/12/01 00:11:14;;;;;;;32.77;23.67;;;0.80;99.90;;;;;;5059518;28;20028;-82
2023/12/01 00:13:39;;;;;;;33.60;24.30;;;0.80;99.90;;;;;;5058726;28;20024;-83
2023/12/01 00:16:05;;;;;;;32.90;24.13;;;0.90;99.90;;;;;;5083021;28;20031;-84
2023/12/01 00:18:31;;;;;;;32.73;22.83;;;0.90;99.90;;;;;;5093492;28;20032;-83
2023/12/01 00:20:56;;;;;;;33.03;23.27;;;0.90;99.90;;;;;;5085120;28;20035;-82
2023/12/01 00:23:22;;;;;;;35.33;24.73;;;0.90;99.90;;;;;;5064995;28;20229;-82
2023/12/01 00:25:48;;;;;;;33.37;23.53;;;0.90;99.90;;;;;;5063753;28;20600;-83
2023/12/01 00:28:13;;;;;;;32.97;23.23;;;0.90;99.90;;;;;;5061650;28;20064;-82
2023/12/01 00:30:39;;;;;;;32.77;22.70;;;0.80;99.90;;;;;;5062688;28;20016;-82
2023/12/01 00:33:04;;;;;;;34.10;23.97;;;0.90;99.90;;;;;;5063481;28;20099;-82
2023/12/01 00:35:30;;;;;;;31.43;23.57;;;0.90;99.90;;;;;;5064335;28;20046;-82
2023/12/01 00:37:56;;;;;;;33.17;23.10;;;0.90;99.90;;;;;;5065197;28;20983;-82
2023/12/01 00:40:22;;;;;;;33.13;24.77;;;0.90;99.90;;;;;;5065527;28;20020;-82
2023/12/01 00:42:47;;;;;;;28.90;21.40;;;0.90;99.90;;;;;;5064495;28;20028;-82
2023/12/01 00:45:13;;;;;;;30.00;22.57;;;0.90;99.90;;;;;;5064621;28;20048;-83
2023/12/01 00:47:38;;;;;;;34.50;22.80;;;0.90;99.90;;;;;;5068812;28;20101;-82
2023/12/01 00:50:04;;;;;;;34.17;23.83;;;0.90;99.90;;;;;;5068908;28;20122;-82
2023/12/01 00:52:31;;;;;;;34.83;24.27;;;0.90;99.90;;;;;;5069079;28;20060;-82
2023/12/01 00:54:56;;;;;;;34.13;24.00;;;0.90;99.90;;;;;;5069698;28;20514;-82
2023/12/01 00:57:22;;;;;;;33.77;22.80;;;0.90;99.90;;;;;;5069061;28;20052;-82
2023/12/01 00:59:48;;;;;;;29.17;21.23;;;0.90;99.90;;;;;;5069254;28;20063;-82
2023/12/01 01:02:13;;;;;;;35.63;22.80;;;0.90;99.90;;;;;;5069064;28;20044;-82
2023/12/01 01:04:39;;;;;;;31.37;21.17;;;0.90;99.90;;;;;;5067386;28;20473;-82
2023/12/01 01:07:05;;;;;;;31.13;22.10;;;0.90;99.90;;;;;;5067370;28;20052;-82
2023/12/01 01:09:30;;;;;;;33.47;22.70;;;0.90;99.90;;;;;;5067351;28;20511;-82
2023/12/01 01:11:56;;;;;;;29.47;21.43;;;0.90;99.90;;;;;;5067674;28;20032;-83
2023/12/01 01:14:21;;;;;;;31.23;22.07;;;0.90;99.90;;;;;;5065938;28;20034;-82
2023/12/01 01:16:47;;;;;;;32.10;22.43;;;0.90;99.90;;;;;;5064914;28;20039;-82
2023/12/01 01:19:12;;;;;;;31.53;21.03;;;0.90;99.90;;;;;;5065441;28;20116;-82
2023/12/01 01:21:38;;;;;;;32.13;22.17;;;0.90;99.90;;;;;;5065356;28;20793;-82
2023/12/01 01:24:04;;;;;;;31.80;21.03;;;0.90;99.90;;;;;;5065028;28;20040;-82
2023/12/01 01:26:29;;;;;;;28.97;20.73;;;0.90;99.90;;;;;;5064592;28;20024;-82
2023/12/01 01:28:55;;;;;;;31.73;21.47;;;0.90;99.90;;;;;;5063607;28;20041;-81
2023/12/01 01:31:20;;;;;;;31.83;22.33;;;0.90;99.90;;;;;;5067557;28;20856;-82
2023/12/01 01:33:46;;;;;;;28.50;19.90;;;1.00;99.90;;;;;;5065882;28;20438;-83
2023/12/01 01:36:11;;;;;;;28.30;19.50;;;0.90;99.90;;;;;;5066156;28;20060;-82
2023/12/01 01:38:37;;;;;;;29.47;20.03;;;1.00;99.90;;;;;;5067531;28;20031;-82
2023/12/01 01:41:03;;;;;;;30.47;20.80;;;1.00;99.90;;;;;;5067610;28;20048;-82
2023/12/01 01:43:29;;;;;;;31.27;20.73;;;1.00;99.90;;;;;;5065893;28;20321;-82
2023/12/01 01:46:05;;;;;;;29.30;21.53;;;0.90;99.90;;;;;;5067020;28;20035;-82
2023/12/01 01:48:32;;;;;;;30.93;20.70;;;1.00;99.90;;;;;;5067259;28;20047;-82
2023/12/01 01:50:58;;;;;;;29.07;20.77;;;1.00;99.90;;;;;;5067554;28;20028;-83
2023/12/01 01:53:24;;;;;;;38.73;25.53;;;0.90;99.90;;;;;;5067273;28;20556;-82
2023/12/01 01:55:50;;;;;;;33.03;22.53;;;1.00;99.90;;;;;;5066657;28;20031;-82
2023/12/01 01:58:16;;;;;;;33.83;21.13;;;0.90;99.90;;;;;;5066687;28;20024;-82
2023/12/01 02:00:49;;;;;;;32.10;21.23;;;0.90;99.90;;;;;;5065961;28;20106;-82
2023/12/01 02:03:23;;;;;;;31.70;21.10;;;0.90;99.90;;;;;;5067349;28;20143;-82
2023/12/01 02:05:49;;;;;;;22.85;16.55;;;0.90;99.90;;;;;;5065975;28;20087;-82
2023/12/01 02:08:25;;;;;;;32.00;22.27;;;0.90;99.90;;;;;;5066364;28;20045;-82
2023/12/01 02:10:55;;;;;;;34.13;22.90;;;0.90;99.90;;;;;;5067833;28;20032;-82
2023/12/01 02:13:22;;;;;;;37.03;23.33;;;0.90;99.90;;;;;;5067488;28;20028;-83
2023/12/01 02:15:48;;;;;;;36.97;23.90;;;0.80;99.90;;;;;;5067257;28;20029;-82
2023/12/01 02:18:28;;;;;;;38.53;25.63;;;0.80;99.90;;;;;;5067728;28;20086;-82
2023/12/01 02:20:55;;;;;;;35.60;24.47;;;0.80;99.90;;;;;;5066977;28;20039;-82
2023/12/01 02:23:21;;;;;;;33.33;23.37;;;0.80;99.90;;;;;;5066950;28;20035;-82
2023/12/01 02:25:48;;;;;;;37.53;23.87;;;0.80;99.90;;;;;;5066939;28;20054;-82
2023/12/01 02:28:14;;;;;;;39.87;24.97;;;0.80;99.90;;;;;;5065661;28;20116;-83
2023/12/01 02:30:42;;;;;;;36.97;23.43;;;0.80;99.90;;;;;;5066587;28;20035;-82
2023/12/01 02:33:12;;;;;;;42.77;25.50;;;0.80;99.90;;;;;;5066631;28;21433;-82
2023/12/01 02:35:37;;;;;;;33.67;23.17;;;0.80;99.90;;;;;;5066326;28;20027;-82
2023/12/01 02:38:03;;;;;;;34.03;22.40;;;0.80;99.90;;;;;;5066444;28;20028;-82
2023/12/01 02:40:29;;;;;;;34.83;23.50;;;0.80;99.90;;;;;;5066176;28;20047;-81
2023/12/01 02:42:55;;;;;;;33.30;23.30;;;0.80;99.90;;;;;;5066044;28;20032;-82
2023/12/01 02:45:21;;;;;;;34.67;24.53;;;0.80;99.90;;;;;;5066325;28;20117;-82
2023/12/01 02:47:49;;;;;;;37.60;25.00;;;0.80;99.90;;;;;;5067131;28;20187;-82
2023/12/01 02:50:15;;;;;;;35.27;24.03;;;0.80;99.90;;;;;;5067109;28;20032;-82
2023/12/01 02:52:41;;;;;;;38.27;25.33;;;0.80;99.90;;;;;;5066749;28;20024;-82
2023/12/01 02:55:08;;;;;;;35.97;23.97;;;0.90;99.90;;;;;;5066531;28;20028;-83
2023/12/01 02:57:39;;;;;;;39.27;24.40;;;0.90;99.90;;;;;;5065936;28;20031;-82
2023/12/01 03:00:13;;;;;;;35.37;24.13;;;0.90;99.90;;;;;;5065728;28;20135;-82
2023/12/01 03:02:45;;;;;;;39.63;25.73;;;0.90;99.90;;;;;;5065218;28;20051;-82
2023/12/01 03:05:11;;;;;;;36.47;25.13;;;0.90;99.90;;;;;;5064383;28;20080;-82
2023/12/01 03:07:37;;;;;;;36.00;24.90;;;0.90;99.90;;;;;;5063810;28;20637;-82
2023/12/01 03:10:04;;;;;;;34.33;22.37;;;0.90;99.90;;;;;;5073764;28;20024;-82
2023/12/01 03:12:29;;;;;;;34.60;23.80;;;0.90;99.90;;;;;;5096309;28;20116;-81
2023/12/01 03:14:56;;;;;;;34.40;23.43;;;0.90;99.90;;;;;;5091597;28;20037;-81
2023/12/01 03:17:23;;;;;;;36.23;24.30;;;0.90;99.90;;;;;;5067981;28;20059;-82
2023/12/01 03:19:50;;;;;;;33.20;23.13;;;0.90;99.90;;;;;;5066794;28;20012;-82
2023/12/01 03:22:16;;;;;;;33.23;22.83;;;0.90;99.90;;;;;;5066050;28;20032;-82
2023/12/01 03:24:42;;;;;;;32.27;22.33;;;0.90;99.90;;;;;;5065127;28;20036;-82
2023/12/01 03:27:07;;;;;;;37.50;24.17;;;0.90;99.90;;;;;;5064725;28;20047;-82
2023/12/01 03:29:34;;;;;;;33.47;23.17;;;0.90;99.90;;;;;;5065102;28;20025;-82
2023/12/01 03:32:00;;;;;;;33.07;22.83;;;0.90;99.90;;;;;;5065134;28;20097;-82
2023/12/01 03:34:26;;;;;;;35.20;24.00;;;0.90;99.90;;;;;;5065969;28;20072;-82
2023/12/01 03:36:52;;;;;;;35.53;23.33;;;0.90;99.90;;;;;;5065880;28;20032;-82
2023/12/01 03:39:17;;;;;;;37.17;23.30;;;0.90;99.90;;;;;;5065973;28;20055;-82
2023/12/01 03:41:48;;;;;;;35.30;23.07;;;0.90;99.90;;;;;;5065283;28;20040;-82
2023/12/01 03:44:14;;;;;;;34.73;23.53;;;0.90;99.90;;;;;;5066038;28;21027;-82
2023/12/01 03:46:39;;;;;;;36.87;23.67;;;0.90;99.90;;;;;;5065344;28;20032;-82
2023/12/01 03:49:05;;;;;;;35.53;23.50;;;0.90;99.90;;;;;;5066077;28;20044;-82
2023/12/01 03:51:31;;;;;;;42.53;26.17;;;0.90;99.90;;;;;;5066064;28;20042;-82
2023/12/01 03:53:57;;;;;;;39.13;24.63;;;0.90;99.90;;;;;;5065288;28;20020;-82
2023/12/01 03:56:22;;;;;;;38.60;25.73;;;0.90;99.90;;;;;;5065000;28;20040;-82
2023/12/01 03:58:48;;;;;;;37.03;24.90;;;0.90;99.90;;;;;;5064860;28;20108;-82
2023/12/01 04:01:14;;;;;;;36.73;25.77;;;0.90;99.90;;;;;;5064423;28;20068;-82
2023/12/01 04:03:39;;;;;;;36.37;23.93;;;0.90;99.90;;;;;;5065056;28;20025;-83
2023/12/01 04:06:05;;;;;;;36.70;24.70;;;0.90;99.90;;;;;;5064063;28;20139;-81
2023/12/01 04:08:31;;;;;;;38.77;25.30;;;0.90;99.90;;;;;;5065039;28;20036;-82
2023/12/01 04:10:57;;;;;;;39.03;23.87;;;0.90;99.90;;;;;;5065426;28;20129;-82
2023/12/01 04:13:24;;;;;;;38.80;24.90;;;0.90;99.90;;;;;;5065152;28;20025;-82
2023/12/01 04:15:50;;;;;;;39.13;24.40;;;0.80;99.90;;;;;;5064928;28;20103;-82
2023/12/01 04:18:15;;;;;;;36.37;24.33;;;0.90;99.90;;;;;;5065619;28;20047;-82
2023/12/01 04:20:41;;;;;;;37.13;25.07;;;0.90;99.90;;;;;;5067043;28;20036;-82
2023/12/01 04:23:10;;;;;;;35.67;23.70;;;0.80;99.90;;;;;;5070287;28;20043;-82
2023/12/01 04:25:40;;;;;;;34.40;22.83;;;0.90;99.90;;;;;;5068909;28;20025;-82
2023/12/01 04:28:06;;;;;;;35.63;23.67;;;0.90;99.90;;;;;;5069937;28;20101;-82
2023/12/01 04:30:32;;;;;;;32.57;23.00;;;0.90;99.90;;;;;;5068898;28;20025;-82
2023/12/01 04:32:59;;;;;;;32.97;23.03;;;0.90;99.90;;;;;;5069335;28;20020;-82
2023/12/01 04:35:31;;;;;;;32.20;22.97;;;0.90;99.90;;;;;;5068501;28;20029;-83
2023/12/01 04:37:59;;;;;;;35.20;23.70;;;0.80;99.90;;;;;;5071648;28;20080;-81
2023/12/01 04:40:27;;;;;;;37.27;24.20;;;0.80;99.90;;;;;;5071223;28;20032;-82
2023/12/01 04:42:53;;;;;;;30.97;21.77;;;0.90;99.90;;;;;;5069515;28;20025;-82
2023/12/01 04:45:20;;;;;;;36.00;23.40;;;0.80;99.90;;;;;;5069058;28;20082;-81
2023/12/01 04:47:51;;;;;;;35.83;24.53;;;0.90;99.90;;;;;;5069000;28;20036;-82
2023/12/01 04:50:22;;;;;;;40.53;26.77;;;0.80;99.90;;;;;;5067990;28;20031;-82
2023/12/01 04:52:49;;;;;;;33.87;23.50;;;0.80;99.90;;;;;;5068358;28;20134;-82
2023/12/01 04:55:17;;;;;;;34.90;23.70;;;0.80;99.90;;;;;;5066418;28;20044;-82
2023/12/01 04:57:44;;;;;;;35.33;22.67;;;0.80;99.90;;;;;;5067162;28;20032;-82
2023/12/01 05:00:22;;;;;;;29.37;22.47;;;0.80;99.90;;;;;;5066756;28;20028;-82
2023/12/01 05:03:00;;;;;;;30.97;21.67;;;0.80;99.90;;;;;;5066460;28;20063;-82
2023/12/01 05:05:31;;;;;;;29.83;21.23;;;0.80;99.90;;;;;;5065959;28;20035;-82
2023/12/01 05:07:58;;;;;;;31.77;22.60;;;0.80;99.90;;;;;;5067605;28;20041;-82
2023/12/01 05:10:29;;;;;;;32.37;23.57;;;0.80;99.90;;;;;;5066120;28;20028;-82
2023/12/01 05:12:56;;;;;;;30.33;22.47;;;0.80;99.90;;;;;;5066262;28;20103;-82
2023/12/01 05:15:24;;;;;;;31.63;22.37;;;0.80;99.90;;;;;;5064888;28;20029;-84
2023/12/01 05:18:01;;;;;;;33.97;22.50;;;0.80;99.90;;;;;;5065036;28;20620;-82
2023/12/01 05:20:28;;;;;;;32.83;21.37;;;0.80;99.90;;;;;;5065165;28;20028;-83
2023/12/01 05:22:59;;;;;;;31.70;21.87;;;0.80;99.90;;;;;;5065888;28;20032;-82
2023/12/01 05:25:26;;;;;;;35.43;22.23;;;0.80;99.90;;;;;;5063242;28;20123;-82
2023/12/01 05:27:59;;;;;;;37.27;22.47;;;0.80;99.90;;;;;;5063041;28;20438;-82
2023/12/01 05:30:27;;;;;;;36.40;25.20;;;0.80;99.90;;;;;;5064604;28;20051;-82
2023/12/01 05:32:53;;;;;;;32.63;23.03;;;0.80;99.90;;;;;;5064144;28;20097;-82
2023/12/01 05:35:20;;;;;;;32.13;22.23;;;0.80;99.90;;;;;;5064792;28;20422;-82
2023/12/01 05:37:48;;;;;;;33.40;22.23;;;0.80;99.90;;;;;;5066727;28;21160;-82
2023/12/01 05:40:20;;;;;;;29.57;22.00;;;0.80;99.90;;;;;;5067520;28;20049;-82
2023/12/01 05:42:46;;;;;;;35.50;22.83;;;0.70;99.90;;;;;;5066523;28;20075;-82
2023/12/01 05:45:12;;;;;;;35.53;23.50;;;0.80;99.90;;;;;;5067101;28;20064;-82
2023/12/01 05:47:42;;;;;;;34.60;22.47;;;0.80;99.90;;;;;;5065373;28;20055;-79
2023/12/01 05:50:13;;;;;;;33.43;23.10;;;0.80;99.90;;;;;;5063767;28;20040;-79
2023/12/01 05:52:41;;;;;;;36.17;23.23;;;0.70;99.90;;;;;;5063473;28;20029;-79
2023/12/01 05:55:14;;;;;;;35.97;23.37;;;0.80;99.90;;;;;;5061843;28;20036;-79
2023/12/01 05:57:49;;;;;;;34.93;24.07;;;0.70;99.90;;;;;;5064961;28;21045;-82
2023/12/01 06:00:17;;;;;;;37.90;24.63;;;0.70;99.90;;;;;;5066823;28;20035;-83
2023/12/01 06:02:46;;;;;;;32.73;23.20;;;0.70;99.90;;;;;;5065624;28;20066;-81
2023/12/01 06:05:17;;;;;;;35.47;22.60;;;0.70;99.90;;;;;;5076633;28;20029;-83
2023/12/01 06:07:44;;;;;;;35.87;23.10;;;0.70;99.90;;;;;;5085121;28;20037;-81
2023/12/01 06:10:11;;;;;;;34.27;22.83;;;0.70;99.90;;;;;;5084372;28;20044;-82
2023/12/01 06:12:37;;;;;;;32.97;23.10;;;0.70;99.90;;;;;;5064450;28;20090;-82
2023/12/01 06:15:05;;;;;;;37.57;24.53;;;0.70;99.90;;;;;;5066067;28;20032;-82
2023/12/01 06:17:31;;;;;;;36.87;24.40;;;0.70;99.90;;;;;;5066360;28;20115;-82
2023/12/01 06:19:57;;;;;;;36.97;23.90;;;0.70;99.90;;;;;;5062201;28;20031;-82
2023/12/01 06:22:22;;;;;;;35.67;23.80;;;0.80;99.90;;;;;;5059998;28;21053;-83
2023/12/01 06:24:48;;;;;;;34.67;23.60;;;0.70;99.90;;;;;;5060964;28;20032;-83
2023/12/01 06:27:14;;;;;;;35.53;23.13;;;0.80;99.90;;;;;;5060150;28;20032;-83
2023/12/01 06:29:40;;;;;;;30.80;22.50;;;0.80;99.90;;;;;;5060297;28;20031;-82
2023/12/01 06:32:05;;;;;;;31.47;22.57;;;0.80;99.90;;;;;;5060271;28;20027;-82
2023/12/01 06:34:31;;;;;;;32.40;22.40;;;0.80;99.90;;;;;;5060231;28;20122;-81
2023/12/01 06:36:59;;;;;;;32.83;22.23;;;0.80;99.90;;;;;;5061053;28;20047;-81
2023/12/01 06:39:25;;;;;;;34.97;23.27;;;0.80;99.90;;;;;;5062538;28;20513;-82
2023/12/01 06:41:53;;;;;;;33.27;22.13;;;0.80;99.90;;;;;;5063558;28;20027;-81
2023/12/01 06:44:18;;;;;;;30.47;20.90;;;0.80;99.90;;;;;;5061733;28;20071;-81
2023/12/01 06:46:44;;;;;;;31.23;21.67;;;0.80;99.90;;;;;;5063098;28;20103;-81
2023/12/01 06:49:10;;;;;;;31.40;22.17;;;0.80;99.90;;;;;;5062269;28;20025;-80
2023/12/01 06:51:35;;;;;;;29.47;20.23;;;0.80;99.90;;;;;;5062621;28;20024;-81
2023/12/01 06:54:01;;;;;;;35.00;22.23;;;0.80;99.90;;;;;;5060793;28;20074;-80
2023/12/01 06:56:26;;;;;;;32.20;21.43;;;0.80;99.90;;;;;;5064294;28;20103;-80
2023/12/01 06:58:52;;;;;;;28.67;20.73;;;0.80;99.90;;;;;;5060596;28;20032;-80
2023/12/01 07:01:18;;;;;;;26.70;18.80;;;0.80;99.90;;;;;;5061703;28;20081;-81
2023/12/01 07:03:47;;;;;;;24.67;17.47;;;0.80;99.90;;;;;;5062574;28;20763;-80
2023/12/01 07:06:14;;;;;;;30.50;18.87;;;0.80;99.90;;;;;;5062617;28;20031;-81
2023/12/01 07:08:40;;;;;;;30.97;20.53;;;0.80;99.90;;;;;;5060688;28;20028;-80
2023/12/01 07:11:07;;;;;;;28.63;20.00;;;0.80;99.90;;;;;;5062327;28;20115;-80
2023/12/01 07:13:32;;;;;;;30.23;20.90;;;0.80;99.90;;;;;;5062422;28;20024;-81
2023/12/01 07:15:58;;;;;;;30.13;20.03;;;0.80;99.90;;;;;;5061264;28;20040;-80
2023/12/01 07:18:26;;;;;;;26.67;18.77;;;0.80;99.90;;;;;;5062534;28;20029;-80
2023/12/01 07:20:51;;;;;;;29.73;19.80;;;0.80;99.90;;;;;;5062021;28;20066;-80
2023/12/01 07:23:20;;;;;;;27.90;20.30;;;0.80;99.90;;;;;;5063262;28;20016;-80
2023/12/01 07:25:50;;;;;;;26.43;18.80;;;0.80;99.90;;;;;;5061555;28;20044;-81
2023/12/01 07:28:15;;;;;;;28.03;19.80;;;0.80;99.90;;;;;;5060416;28;20414;-80
2023/12/01 07:30:41;;;;;;;29.87;19.33;;;0.90;99.90;;;;;;5063622;28;20024;-80
2023/12/01 07:33:09;;;;;;;26.33;19.03;;;0.90;99.90;;;;;;5061173;28;20500;-81
2023/12/01 07:35:35;;;;;;;30.03;19.17;;;0.90;99.90;;;;;;5062584;28;20403;-80
2023/12/01 07:38:04;;;;;;;30.03;19.60;;;0.90;99.90;;;;;;5063410;28;20032;-79
2023/12/01 07:40:31;;;;;;;30.87;19.53;;;0.90;99.90;;;;;;5090732;28;20133;-78
2023/12/01 07:42:57;;;;;;;29.47;18.33;;;0.90;99.90;;;;;;5059824;28;20025;-78
2023/12/01 07:45:24;;;;;;;29.00;19.33;;;0.90;99.90;;;;;;5059574;28;20074;-79
2023/12/01 07:47:52;;;;;;;25.47;18.10;;;1.00;99.90;;;;;;5059312;28;20033;-78
2023/12/01 07:50:19;;;;;;;26.90;17.97;;;1.00;99.90;;;;;;5060293;28;20119;-79
2023/12/01 07:52:47;;;;;;;27.13;18.90;;;1.00;99.90;;;;;;5061911;28;21437;-79
2023/12/01 07:55:13;;;;;;;26.83;18.27;;;1.10;99.90;;;;;;5060592;28;20035;-79
2023/12/01 07:57:39;;;;;;;23.93;16.20;;;1.10;99.90;;;;;;5059790;28;20021;-79
2023/12/01 08:00:14;;;;;;;25.63;17.50;;;1.10;99.90;;;;;;5061335;28;20477;-79
2023/12/01 08:02:40;;;;;;;23.67;16.15;;;1.10;99.90;;;;;;5062530;28;20024;-79
2023/12/01 08:05:13;;;;;;;26.20;15.87;;;1.20;99.90;;;;;;5061749;28;20033;-79
2023/12/01 08:07:40;;;;;;;23.57;16.17;;;1.20;99.90;;;;;;5060251;28;20041;-79
2023/12/01 08:10:06;;;;;;;22.83;16.30;;;1.20;99.90;;;;;;5060568;28;20052;-79
2023/12/01 08:12:32;;;;;;;25.47;17.20;;;1.20;99.90;;;;;;5060722;28;20025;-78
2023/12/01 08:14:58;;;;;;;20.30;14.77;;;1.20;99.90;;;;;;5059324;28;20040;-78
2023/12/01 08:17:24;;;;;;;20.50;14.93;;;1.30;99.90;;;;;;5059926;28;20056;-79
2023/12/01 08:19:50;;;;;;;20.03;14.70;;;1.30;99.90;;;;;;5059808;28;20055;-79
2023/12/01 08:22:17;;;;;;;21.03;14.57;;;1.30;99.90;;;;;;5058555;28;20125;-78
2023/12/01 08:24:42;;;;;;;22.20;15.63;;;1.30;99.90;;;;;;5059342;28;20048;-79
2023/12/01 08:27:08;;;;;;;26.03;18.17;;;1.30;99.90;;;;;;5059402;28;21085;-79
2023/12/01 08:29:35;;;;;;;24.90;17.73;;;1.30;99.90;;;;;;5057599;28;20127;-79
2023/12/01 08:32:00;;;;;;;26.90;19.23;;;1.30;99.90;;;;;;5058259;28;20025;-79
2023/12/01 08:34:26;;;;;;;30.27;20.97;;;1.30;99.90;;;;;;5058538;28;20032;-79
2023/12/01 08:36:51;;;;;;;32.40;21.87;;;1.40;99.90;;;;;;5058943;28;20494;-79
2023/12/01 08:39:17;;;;;;;31.67;21.07;;;1.40;99.90;;;;;;5058626;28;20040;-78
2023/12/01 08:41:42;;;;;;;29.33;18.97;;;1.40;99.90;;;;;;5059908;28;20032;-79
2023/12/01 08:44:08;;;;;;;28.10;20.90;;;1.40;99.90;;;;;;5057607;28;20013;-78
2023/12/01 08:46:33;;;;;;;30.67;20.03;;;1.50;99.90;;;;;;5057984;28;20033;-79
2023/12/01 08:49:00;;;;;;;34.67;21.87;;;1.50;99.90;;;;;;5058654;28;20032;-79
2023/12/01 08:51:26;;;;;;;35.87;23.27;;;1.50;99.90;;;;;;5059831;28;20084;-78
2023/12/01 08:53:51;;;;;;;32.00;21.00;;;1.50;99.90;;;;;;5057723;28;20107;-79
2023/12/01 08:56:17;;;;;;;31.37;20.30;;;1.60;99.90;;;;;;5058086;28;20050;-79
2023/12/01 08:58:42;;;;;;;31.17;19.57;;;1.60;99.90;;;;;;5058777;28;20028;-78
2023/12/01 09:01:08;;;;;;;31.63;20.30;;;1.60;99.90;;;;;;5057342;28;20059;-78
2023/12/01 09:03:33;;;;;;;30.47;19.67;;;1.60;99.90;;;;;;5057381;28;20120;-79
2023/12/01 09:06:03;;;;;;;28.53;19.47;;;1.70;99.90;;;;;;5076660;28;20094;-77
2023/12/01 09:08:29;;;;;;;26.00;18.10;;;1.70;99.90;;;;;;5089323;28;20025;-78
2023/12/01 09:10:54;;;;;;;29.63;19.77;;;1.70;99.90;;;;;;5080583;28;20028;-79
2023/12/01 09:13:20;;;;;;;27.73;19.43;;;1.70;99.90;;;;;;5064232;28;20115;-79
2023/12/01 09:15:45;;;;;;;24.80;16.93;;;1.70;99.90;;;;;;5062321;28;20116;-79
2023/12/01 09:18:11;;;;;;;22.87;15.60;;;1.70;99.90;;;;;;5060109;28;20064;-79
2023/12/01 09:20:36;;;;;;;25.10;17.80;;;1.80;99.90;;;;;;5061836;28;20552;-79
2023/12/01 09:23:02;;;;;;;24.13;16.13;;;1.80;99.90;;;;;;5061829;28;20029;-79
2023/12/01 09:25:28;;;;;;;20.00;14.13;;;1.70;99.90;;;;;;5061440;28;20538;-81
2023/12/01 09:27:53;;;;;;;20.57;16.50;;;1.70;99.90;;;;;;5062425;28;20043;-81
2023/12/01 09:30:19;;;;;;;19.33;14.23;;;1.70;99.90;;;;;;5065083;28;20013;-80
2023/12/01 09:32:45;;;;;;;21.77;15.50;;;1.70;99.90;;;;;;5063463;28;20029;-81
2023/12/01 09:35:10;;;;;;;25.97;18.07;;;1.70;99.90;;;;;;5062087;28;20032;-81
2023/12/01 09:37:36;;;;;;;22.83;15.20;;;1.70;99.90;;;;;;5065521;28;20032;-81
2023/12/01 09:40:03;;;;;;;20.43;15.50;;;1.70;99.90;;;;;;5063716;28;20140;-81
2023/12/01 09:42:33;;;;;;;18.43;12.73;;;1.70;99.90;;;;;;5061985;28;20040;-82
2023/12/01 09:45:00;;;;;;;21.40;15.03;;;1.70;99.90;;;;;;5070309;28;20029;-81
2023/12/01 09:47:30;;;;;;;20.43;15.10;;;1.70;99.90;;;;;;5074331;28;20050;-81
2023/12/01 09:49:56;;;;;;;21.10;14.70;;;1.70;99.90;;;;;;5071334;28;20046;-81
2023/12/01 09:52:21;;;;;;;19.93;14.23;;;1.70;99.90;;;;;;5063351;28;20484;-81
2023/12/01 09:54:47;;;;;;;16.10;11.77;;;1.70;99.90;;;;;;5063467;28;20115;-81
2023/12/01 09:57:12;;;;;;;16.00;11.40;;;1.70;99.90;;;;;;5062169;28;20487;-81
2023/12/01 09:59:38;;;;;;;17.53;13.13;;;1.80;99.90;;;;;;5062295;28;20021;-81
2023/12/01 10:02:04;;;;;;;16.37;10.93;;;1.80;99.90;;;;;;5062765;28;20051;-81
2023/12/01 10:04:31;;;;;;;16.13;11.07;;;1.80;99.90;;;;;;5062637;28;20021;-81
2023/12/01 10:06:57;;;;;;;16.60;12.00;;;1.80;99.90;;;;;;5061701;28;20732;-81
2023/12/01 10:09:34;;;;;;;17.23;12.50;;;1.80;99.90;;;;;;5063009;28;20593;-81
2023/12/01 10:12:07;;;;;;;16.77;11.50;;;1.80;99.90;;;;;;5065892;28;20017;-81
2023/12/01 10:14:36;;;;;;;20.20;13.20;;;1.80;99.90;;;;;;5062402;28;20123;-81
2023/12/01 10:17:04;;;;;;;19.40;13.60;;;1.80;99.90;;;;;;5063694;28;20028;-80
2023/12/01 10:19:33;;;;;;;20.27;14.50;;;1.70;99.90;;;;;;5064498;28;20095;-81
2023/12/01 10:21:59;;;;;;;23.87;16.47;;;1.70;99.90;;;;;;5062152;28;20033;-80
2023/12/01 10:24:25;;;;;;;20.90;14.47;;;1.60;99.90;;;;;;5061459;28;20029;-81
2023/12/01 10:26:52;;;;;;;21.60;15.53;;;1.60;99.90;;;;;;5061400;28;20272;-80
2023/12/01 10:29:32;;;;;;;20.10;14.33;;;1.50;99.90;;;;;;5060374;28;20100;-80
2023/12/01 10:32:02;;;;;;;21.53;15.30;;;1.60;99.90;;;;;;5059705;28;20032;-80
2023/12/01 10:34:28;;;;;;;22.00;13.87;;;1.60;99.90;;;;;;5061520;28;20121;-79
2023/12/01 10:36:54;;;;;;;23.13;15.13;;;1.60;99.90;;;;;;5059497;28;20029;-78
2023/12/01 10:39:27;;;;;;;23.30;17.20;;;1.50;99.90;;;;;;5058770;28;20115;-79
2023/12/01 10:41:57;;;;;;;22.13;16.23;;;1.50;99.90;;;;;;5059323;28;20118;-79
2023/12/01 10:44:27;;;;;;;22.33;16.23;;;1.60;99.90;;;;;;5059156;28;20033;-79
2023/12/01 10:46:55;;;;;;;24.20;17.17;;;1.60;99.90;;;;;;5058475;28;20662;-79
2023/12/01 10:49:21;;;;;;;22.83;16.50;;;1.60;99.90;;;;;;5057124;28;20021;-78
2023/12/01 10:51:52;;;;;;;23.43;16.93;;;1.60;99.90;;;;;;5058540;28;20046;-78
2023/12/01 10:54:27;;;;;;;25.30;16.77;;;1.60;99.90;;;;;;5058726;28;20464;-78
2023/12/01 10:57:08;;;;;;;26.13;17.20;;;1.70;99.90;;;;;;5056691;28;20373;-79
2023/12/01 10:59:36;;;;;;;23.87;16.83;;;1.70;99.90;;;;;;5057852;28;20098;-79
2023/12/01 11:02:03;;;;;;;22.33;16.40;;;1.70;99.90;;;;;;5060425;28;20039;-79
2023/12/01 11:04:32;;;;;;;24.37;16.73;;;1.70;99.90;;;;;;5058627;28;20024;-79
2023/12/01 11:07:33;;;;;;;26.07;18.83;;;1.70;99.90;;;;;;5058323;28;20205;-79
2023/12/01 11:10:42;;;;;;;26.23;17.50;;;1.70;99.90;;;;;;5058953;28;20071;-78
2023/12/01 11:13:42;;;;;;;25.03;17.27;;;1.70;99.90;;;;;;5058632;28;20029;-79
2023/12/01 11:16:08;;;;;;;24.90;16.27;;;1.60;99.90;;;;;;5058895;28;20024;-79
2023/12/01 11:18:34;;;;;;;25.07;15.87;;;1.70;99.90;;;;;;5058116;28;20035;-79
2023/12/01 11:20:59;;;;;;;22.87;15.90;;;1.60;99.90;;;;;;5058801;28;21382;-79
2023/12/01 11:23:25;;;;;;;21.13;14.80;;;1.70;99.90;;;;;;5059898;28;20268;-79
2023/12/01 11:25:56;;;;;;;23.57;16.50;;;1.60;99.90;;;;;;5061975;28;20399;-79
2023/12/01 11:28:46;;;;;;;23.77;15.77;;;1.60;99.90;;;;;;5059531;28;20063;-79
2023/12/01 11:31:19;;;;;;;19.47;14.93;;;1.60;99.90;;;;;;5060682;28;20044;-79
2023/12/01 11:33:50;;;;;;;23.87;15.30;;;1.60;99.90;;;;;;5060075;28;20568;-78
2023/12/01 11:36:37;;;;;;;20.93;15.33;;;1.60;99.90;;;;;;5061481;28;20774;-78
2023/12/01 11:41:42;;;;;;;28.57;17.07;;;1.50;99.90;;;;;;5059866;28;20033;-78
2023/12/01 11:44:29;;;;;;;33.40;20.73;;;1.50;99.90;;;;;;5059750;28;20043;-79
2023/12/01 11:47:00;;;;;;;26.83;19.17;;;1.50;99.90;;;;;;5056506;28;20048;-78
2023/12/01 11:49:31;;;;;;;31.47;21.00;;;1.50;99.90;;;;;;5054885;28;20035;-79
2023/12/01 11:52:03;;;;;;;23.63;18.20;;;1.50;99.90;;;;;;5055437;28;20053;-78
2023/12/01 11:54:33;;;;;;;24.63;18.90;;;1.50;99.90;;;;;;5047272;28;20036;-79
2023/12/01 11:56:58;;;;;;;20.97;15.43;;;1.40;99.90;;;;;;5047204;28;20059;-78
2023/12/01 11:59:24;;;;;;;21.07;16.90;;;1.40;99.90;;;;;;5047976;28;20054;-79
2023/12/01 12:01:52;;;;;;;22.10;16.47;;;1.40;99.90;;;;;;5070049;28;20238;-78
2023/12/01 12:04:18;;;;;;;22.10;16.80;;;1.30;99.90;;;;;;5078879;28;20033;-77
2023/12/01 12:06:45;;;;;;;22.40;17.20;;;1.30;99.90;;;;;;5065639;28;20047;-78
2023/12/01 12:09:18;;;;;;;24.33;17.67;;;1.30;99.90;;;;;;5049352;28;20036;-78
2023/12/01 12:11:45;;;;;;;23.43;18.10;;;1.20;99.90;;;;;;5048194;28;20028;-79
2023/12/01 12:14:12;;;;;;;25.13;18.73;;;1.20;99.90;;;;;;5047531;28;20056;-79
2023/12/01 12:16:38;;;;;;;26.67;19.00;;;1.20;99.90;;;;;;5047626;28;20082;-78
2023/12/01 12:19:03;;;;;;;24.90;18.73;;;1.20;99.90;;;;;;5048898;28;20040;-78
2023/12/01 12:21:29;;;;;;;26.07;18.07;;;1.10;99.90;;;;;;5046667;28;20041;-78
2023/12/01 12:23:56;;;;;;;25.07;17.87;;;1.10;99.90;;;;;;5048047;28;20098;-79
2023/12/01 12:26:26;;;;;;;26.53;18.50;;;1.10;99.90;;;;;;5048073;28;20661;-78
2023/12/01 12:28:55;;;;;;;25.43;18.50;;;1.10;99.90;;;;;;5047688;28;20064;-79
2023/12/01 12:31:26;;;;;;;24.60;17.67;;;1.10;99.90;;;;;;5045802;28;20032;-79
2023/12/01 12:33:58;;;;;;;23.30;17.47;;;1.10;99.90;;;;;;5047584;28;20038;-79
2023/12/01 12:36:29;;;;;;;24.07;17.37;;;1.10;99.90;;;;;;5047469;28;20028;-78
2023/12/01 12:38:58;;;;;;;24.67;17.27;;;1.10;99.90;;;;;;5049176;28;20044;-79
2023/12/01 12:41:32;;;;;;;23.67;17.40;;;1.20;99.90;;;;;;5048831;28;21525;-79